Latest Weather Observations for Palmerville

IDQ60801

Issued at 8:13 am EST Monday 3 October 2022 (issued every 10 minutes, with the page automatically refreshed every 10 minutes)

About weather observations | Map of weather stations | Latest weather observations for QLD | Other Formats
Station Details ID: 028004 Name: PALMERVILLE Lat: -16.00 Lon: 144.08 Height: 203.8 m
Data from the previous 72 hours. | See also: Recent months at Palmerville
Date/Time
EST
Temp
°C
App
Temp
°C
Dew
Point
°C
Rel
Hum
%
Delta-T
°C
Wind Press
QNH
hPa
Press
MSL
hPa
Rain since
9am
mm
Dir  Spd
km/h
Gust
km/h
Spd
kts
Gust
kts
03/08:00am 25.1 26.3 18.3 66 4.3 ENE 9 15 5 8 1012.7 1011.5 0.0
03/07:30am 23.8 25.7 18.9 74 3.1 E 7 9 4 5 1012.7 1011.5 0.0
03/07:00am 22.3 23.9 18.3 78 2.5 E 7 9 4 5 1012.3 1011.0 0.0
03/06:30am 20.9 23.0 18.1 84 1.8 ESE 4 7 2 4 1012.1 1010.8 0.0
03/06:00am 20.7 22.4 18.1 85 1.6 E 6 7 3 4 1011.8 1010.5 0.0
03/05:30am 20.2 22.3 18.0 87 1.4 ENE 4 6 2 3 1011.6 1010.3 0.0
03/05:00am 20.1 22.8 17.7 86 1.5 CALM 0 0 0 0 1011.7 1010.4 0.0
03/04:30am 20.4 23.0 17.6 84 1.7 CALM 0 0 0 0 1011.1 1009.8 0.0
03/04:00am 21.1 23.8 17.7 81 2.1 CALM 0 0 0 0 1011.0 1009.7 0.0
03/03:30am 21.7 24.6 18.1 80 2.3 CALM 0 0 0 0 1011.0 1009.7 0.0
03/03:00am 22.3 25.1 17.9 76 2.8 CALM 0 6 0 3 1011.0 1009.7 0.0
03/02:30am 23.2 24.7 18.1 73 3.2 N 7 13 4 7 1011.2 1009.9 0.0
03/02:00am 23.1 24.8 18.0 73 3.2 NE 6 13 3 7 1010.9 1009.6 0.0
03/01:30am 23.4 24.5 18.1 72 3.3 NE 9 13 5 7 1011.2 1009.9 0.0
03/01:00am 23.5 24.9 17.9 71 3.5 NE 7 11 4 6 1011.5 1010.2 0.0
03/12:30am 23.9 25.0 17.9 69 3.8 NE 9 17 5 9 1011.6 1010.3 0.0
03/12:00am 24.1 25.0 17.6 67 4.1 NE 9 15 5 8 1012.1 1010.8 0.0
 
Date/Time
EST
Temp
°C
App
Temp
°C
Dew
Point
°C
Rel
Hum
%
Delta-T
°C
Wind Press
QNH
hPa
Press
MSL
hPa
Rain since
9am
mm
Dir  Spd
km/h
Gust
km/h
Spd
kts
Gust
kts
02/11:30pm 24.5 25.4 17.5 65 4.4 NNE 9 13 5 7 1012.4 1011.1 0.0
02/11:00pm 25.0 25.2 17.7 64 4.6 NNE 13 22 7 12 1012.5 1011.2 0.0
02/10:30pm 25.4 25.6 17.6 62 4.9 NNE 13 22 7 12 1012.6 1011.3 0.0
02/10:00pm 25.9 26.0 17.5 59 5.3 NNE 13 20 7 11 1012.5 1011.2 0.0
02/09:30pm 26.8 27.0 17.6 57 5.8 NNE 13 24 7 13 1012.3 1011.0 0.0
02/09:00pm 27.8 28.4 17.6 53 6.5 NNE 11 19 6 10 1011.7 1010.4 0.0
02/08:30pm 28.5 28.7 17.7 52 6.9 NE 13 20 7 11 1011.1 1009.8 0.0
02/08:00pm 28.9 29.7 17.4 49 7.3 NE 9 15 5 8 1010.7 1009.4 0.0
02/07:30pm 29.6 29.3 17.4 47 7.8 NNE 15 22 8 12 1010.3 1009.0 0.0
02/07:00pm 30.9 30.5 17.2 43 8.8 NNE 15 20 8 11 1009.8 1008.5 0.0
02/06:30pm 32.2 32.3 16.5 39 10.0 N 11 17 6 9 1009.0 1007.7 0.0
02/06:00pm 32.9 33.3 16.3 37 10.6 N 9 17 5 9 1008.7 1007.4 0.0
02/05:30pm 33.4 33.5 15.4 34 11.3 NW 9 13 5 7 1008.3 1006.9 0.0
02/05:00pm 34.3 34.5 15.7 32 11.8 N 9 15 5 8 1007.9 1006.5 0.0
02/04:30pm 34.2 34.3 15.6 32 11.7 N 9 17 5 9 1007.7 1006.4 0.0
02/04:00pm 34.4 34.4 15.3 31 12.0 NNW 9 15 5 8 1007.7 1006.4 0.0
02/03:30pm 35.0 35.2 15.8 31 12.2 NE 9 13 5 7 1007.7 1006.4 0.0
02/03:00pm 34.4 34.6 15.8 33 11.8 NNE 9 13 5 7 1007.9 1006.5 0.0
02/02:30pm 35.1 35.0 15.9 31 12.2 N 11 20 6 11 1008.2 1006.8 0.0
02/02:00pm 33.9 33.7 15.8 33 11.5 NNE 11 20 6 11 1008.7 1007.4 0.0
02/01:30pm 34.3 33.9 16.2 34 11.5 N 13 22 7 12 1009.0 1007.7 0.0
02/01:00pm 34.5 34.3 16.8 34 11.4 NNW 13 24 7 13 1009.5 1008.2 0.0
02/12:30pm 33.6 33.1 16.0 34 11.1 NNW 13 19 7 10 1010.0 1008.7 0.0
02/12:00pm 33.0 33.4 16.4 37 10.6 NW 9 15 5 8 1010.5 1009.2 0.0
02/11:30am 32.1 31.7 15.1 35 10.6 N 11 19 6 10 1011.0 1009.7 0.0
02/11:00am 31.3 31.8 16.5 41 9.4 N 9 20 5 11 1011.6 1010.3 0.0
02/10:30am 31.4 31.8 16.2 40 9.6 NE 9 17 5 9 1012.0 1010.7 0.0
02/10:00am 29.7 30.6 16.5 45 8.3 N 7 15 4 8 1012.6 1011.3 0.0
02/09:30am 28.5 29.4 16.7 48 7.4 NE 7 15 4 8 1013.1 1011.8 0.0
02/09:00am 27.1 27.5 16.4 52 6.7 NE 9 15 5 8 1013.1 1011.8 0.0
02/08:30am 25.5 26.4 16.6 58 5.5 ENE 7 11 4 6 1013.4 1012.1 0.0
02/08:00am 24.7 26.1 17.9 66 4.3 NNE 7 9 4 5 1012.8 1011.6 0.0
02/07:30am 22.9 25.5 17.4 71 3.4 CALM 0 0 0 0 1012.4 1011.1 0.0
02/07:00am 21.3 22.7 17.3 78 2.5 ESE 6 9 3 5 1012.0 1010.7 0.0
02/06:30am 18.5 20.8 16.7 89 1.1 CALM 0 6 0 3 1011.9 1010.6 0.0
02/06:00am 18.4 20.6 16.4 88 1.2 CALM 0 0 0 0 1011.7 1010.4 0.0
02/05:30am 18.7 20.9 16.5 87 1.3 CALM 0 6 0 3 1011.5 1010.2 0.0
02/05:00am 19.1 20.5 16.3 84 1.7 SE 4 7 2 4 1011.4 1010.1 0.0
02/04:30am 19.0 20.4 16.4 85 1.6 E 4 6 2 3 1011.1 1009.8 0.0
02/04:00am 19.5 21.8 16.7 84 1.7 CALM 0 6 0 3 1011.1 1009.8 0.0
02/03:30am 20.1 22.3 16.5 80 2.2 CALM 0 0 0 0 1011.1 1009.8 0.0
02/03:00am 20.5 22.7 16.5 78 2.4 CALM 0 7 0 4 1011.2 1009.9 0.0
02/02:30am 21.5 22.7 16.9 75 2.8 W 6 7 3 4 1011.3 1010.0 0.0
02/02:00am 21.8 24.1 16.7 73 3.1 CALM 0 7 0 4 1011.1 1009.8 0.0
02/01:30am 22.4 23.5 16.7 70 3.5 E 6 9 3 5 1011.3 1010.0 0.0
02/01:00am 22.7 23.6 16.7 69 3.7 NE 7 13 4 7 1011.6 1010.3 0.0
02/12:30am 22.9 23.8 16.7 68 3.8 ENE 7 11 4 6 1012.0 1010.7 0.0
02/12:00am 23.5 24.2 17.0 67 4.0 NNE 9 13 5 7 1012.3 1011.0 0.0
 
Date/Time
EST
Temp
°C
App
Temp
°C
Dew
Point
°C
Rel
Hum
%
Delta-T
°C
Wind Press
QNH
hPa
Press
MSL
hPa
Rain since
9am
mm
Dir  Spd
km/h
Gust
km/h
Spd
kts
Gust
kts
01/11:30pm 23.7 24.0 17.0 66 4.2 NE 11 20 6 11 1012.5 1011.2 0.0
01/11:00pm 24.1 24.1 17.1 65 4.4 NE 13 19 7 10 1012.6 1011.3 0.0
01/10:30pm 24.5 24.6 17.5 65 4.4 NE 13 19 7 10 1012.7 1011.5 0.0
01/10:00pm 25.1 25.3 17.6 63 4.7 NE 13 20 7 11 1012.5 1011.2 0.0
01/09:30pm 25.7 26.2 17.4 60 5.2 NNE 11 19 6 10 1012.3 1011.0 0.0
01/09:00pm 26.3 26.4 17.4 58 5.6 NE 13 22 7 12 1011.9 1010.6 0.0
01/08:30pm 26.8 27.2 17.3 56 6.0 NE 11 17 6 9 1011.5 1010.2 0.0
01/08:00pm 27.5 26.8 17.4 54 6.4 NNE 17 22 9 12 1011.2 1009.9 0.0
01/07:30pm 28.3 28.2 16.9 50 7.2 NE 13 20 7 11 1010.7 1009.4 0.0
01/07:00pm 29.3 28.6 16.5 46 8.1 NNE 15 20 8 11 1010.1 1008.8 0.0
01/06:30pm 30.4 29.3 16.4 43 8.8 NE 17 33 9 18 1009.3 1008.0 0.0
01/06:00pm 32.8 33.1 14.9 34 11.1 NW 7 13 4 7 1008.6 1007.3 0.0
01/05:30pm 33.6 33.4 14.6 31 11.8 NNW 9 17 5 9 1008.2 1006.8 0.0
01/05:00pm 33.8 34.2 14.8 32 11.9 NNW 6 7 3 4 1008.2 1006.8 0.0
01/04:30pm 33.2 33.6 14.8 33 11.4 NNW 6 7 3 4 1008.2 1006.8 0.0
01/04:00pm 33.2 33.4 14.8 33 11.5 NNW 7 9 4 5 1008.2 1006.8 0.0
01/03:30pm 33.4 33.7 14.9 32 11.5 N 7 11 4 6 1008.2 1006.8 0.0
01/03:00pm 34.1 34.2 15.5 32 11.7 N 9 15 5 8 1008.5 1007.2 0.0
01/02:30pm 32.9 33.8 15.0 34 11.2 NE 4 11 2 6 1009.0 1007.7 0.0
01/02:00pm 33.0 33.7 15.5 35 11.0 ESE 6 11 3 6 1009.5 1008.2 0.0
01/01:30pm 32.8 33.0 15.8 36 10.7 E 9 13 5 7 1010.0 1008.7 0.0
01/01:00pm 33.1 33.6 15.6 35 11.0 NW 7 13 4 7 1010.6 1009.3 0.0
01/12:30pm 34.2 34.3 16.5 34 11.3 ENE 11 20 6 11 1011.4 1010.1 0.0
01/12:00pm 33.3 34.4 17.1 38 10.4 S 7 13 4 7 1011.9 1010.6 0.0
01/11:30am 32.7 33.5 17.3 39 9.9 SSE 9 13 5 7 1012.8 1011.6 0.0
01/11:00am 29.5 30.7 17.3 47 7.8 NNW 7 13 4 7 1013.5 1012.2 0.0
01/10:30am 31.3 32.7 17.9 44 8.7 ENE 7 15 4 8 1013.9 1012.6 0.0
01/10:00am 29.7 31.2 17.5 48 7.8 ENE 6 11 3 6 1014.4 1013.1 0.0
01/09:30am 28.8 29.9 18.0 52 6.9 ENE 9 17 5 9 1014.7 1013.6 0.0
01/09:00am 27.0 28.0 17.8 57 5.9 ESE 9 15 5 8 1014.8 1013.7 0.0
01/08:30am 26.0 26.9 17.6 60 5.3 ENE 9 15 5 8 1014.4 1013.3 0.0
01/08:00am 24.4 25.9 17.6 66 4.3 E 6 11 3 6 1014.5 1013.4 0.0
01/07:30am 22.3 25.2 18.3 78 2.5 CALM 0 6 0 3 1014.0 1012.9 0.0
01/07:00am 20.3 22.9 17.5 84 1.7 CALM 0 0 0 0 1013.7 1012.6 0.0
01/06:30am 19.3 20.5 16.9 86 1.5 SE 6 7 3 4 1013.2 1012.0 0.0
01/06:00am 19.2 20.5 17.0 87 1.3 ESE 6 7 3 4 1012.7 1011.6 0.0
01/05:30am 18.9 20.5 16.9 88 1.2 ESE 4 7 2 4 1012.4 1011.3 0.0
01/05:00am 19.2 20.5 17.0 87 1.3 ENE 6 7 3 4 1012.1 1011.0 0.0
01/04:30am 19.7 21.3 16.9 84 1.7 ESE 4 6 2 3 1012.0 1010.9 0.0
01/04:00am 20.3 22.7 16.9 81 2.1 CALM 0 0 0 0 1012.0 1010.9 0.0
01/03:30am 21.1 23.5 17.1 78 2.5 CALM 0 0 0 0 1012.0 1010.9 0.0
01/03:00am 21.9 24.4 17.3 75 2.9 CALM 0 7 0 4 1012.1 1011.0 0.0
01/02:30am 22.2 23.9 17.1 73 3.2 ENE 4 11 2 6 1011.9 1010.8 0.0
01/02:00am 22.4 23.8 17.3 73 3.2 ENE 6 11 3 6 1012.1 1011.0 0.0
01/01:30am 22.1 24.6 17.2 74 3.0 CALM 0 6 0 3 1012.5 1011.4 0.0
01/01:00am 22.5 23.9 17.4 73 3.2 ENE 6 9 3 5 1012.8 1011.7 0.0
01/12:30am 22.7 24.0 17.6 73 3.2 ENE 7 11 4 6 1013.1 1011.9 0.0
01/12:00am 23.1 24.1 17.8 72 3.3 ENE 9 13 5 7 1013.1 1011.9 0.0
 
Date/Time
EST
Temp
°C
App
Temp
°C
Dew
Point
°C
Rel
Hum
%
Delta-T
°C
Wind Press
QNH
hPa
Press
MSL
hPa
Rain since
9am
mm
Dir  Spd
km/h
Gust
km/h
Spd
kts
Gust
kts
30/11:30pm 23.1 24.5 17.8 72 3.3 E 7 11 4 6 1013.2 1012.0 0.0
30/11:00pm 23.5 24.9 17.7 70 3.6 NE 7 9 4 5 1013.5 1012.4 0.0
30/10:30pm 23.9 25.3 17.9 69 3.8 NE 7 11 4 6 1013.4 1012.3 0.0
30/10:00pm 24.3 25.0 18.0 68 4.0 NE 11 20 6 11 1013.3 1012.1 0.0
30/09:30pm 24.8 25.1 18.0 66 4.3 ENE 13 22 7 12 1013.4 1012.3 0.0
30/09:00pm 25.2 25.9 17.9 64 4.6 NE 11 19 6 10 1013.2 1012.0 0.0
30/08:30pm 25.7 25.1 17.6 61 5.1 NE 17 26 9 14 1013.1 1011.9 0.0
30/08:00pm 26.4 25.9 17.7 58 5.5 NE 17 30 9 16 1012.8 1011.7 0.0
30/07:30pm 27.5 27.0 17.7 55 6.2 NE 17 30 9 16 1012.2 1011.1 0.0
30/07:00pm 29.0 29.1 17.5 49 7.3 ENE 13 20 7 11 1011.4 1010.3 0.0
30/06:30pm 30.5 29.3 17.6 46 8.3 NNE 20 32 11 17 1010.8 1009.7 0.0
30/06:00pm 31.7 31.2 16.8 40 9.5 N 15 20 8 11 1010.1 1009.0 0.0
30/05:30pm 33.1 33.6 15.6 35 11.0 N 7 15 4 8 1009.7 1008.6 0.0
30/05:00pm 33.2 32.8 16.1 35 10.8 NNE 13 20 7 11 1009.7 1008.6 0.0
30/04:30pm 35.2 35.3 15.5 30 12.5 ENE 9 19 5 10 1009.7 1008.6 0.0
30/04:00pm 35.4 35.4 15.2 30 12.7 N 9 15 5 8 1009.6 1008.5 0.0
30/03:30pm 35.4 35.2 14.6 28 13.0 NW 9 17 5 9 1009.6 1008.5 0.0
30/03:00pm 35.9 36.0 14.5 27 13.4 WSW 7 11 4 6 1009.8 1008.7 0.0
30/02:30pm 34.6 34.7 15.5 32 12.1 NNE 9 15 5 8 1010.2 1009.1 0.0
30/02:00pm 33.0 32.5 15.0 33 11.2 ENE 11 20 6 11 1010.8 1009.7 0.0
30/01:30pm 35.7 36.0 15.9 30 12.6 E 9 20 5 11 1011.3 1010.2 0.0
30/01:00pm 33.4 32.5 15.8 34 11.1 ENE 15 26 8 14 1011.9 1010.8 0.0
30/12:30pm 34.1 34.8 16.0 34 11.5 SSW 7 20 4 11 1012.7 1011.6 0.0
30/12:00pm 34.1 34.6 15.5 32 11.7 SSE 7 19 4 10 1013.5 1012.4 0.0
30/11:30am 32.8 32.8 16.2 37 10.5 ESE 11 20 6 11 1014.1 1013.0 0.0
30/11:00am 32.2 31.4 15.2 35 10.6 ENE 13 24 7 13 1014.8 1013.7 0.0
30/10:30am 30.9 30.5 16.1 41 9.3 NE 13 19 7 10 1015.3 1014.2 0.0
30/10:00am 30.6 30.4 15.8 40 9.2 ENE 11 20 6 11 1015.5 1014.4 0.0
30/09:30am 29.2 28.9 16.4 46 8.0 ESE 13 24 7 13 1015.9 1014.8 0.0
30/09:00am 28.1 28.3 16.7 50 7.2 E 11 19 6 10 1016.1 1015.0 0.0
30/08:30am 26.8 27.8 17.8 57 5.7 ESE 9 15 5 8 1016.1 1015.0 0.0

Other formats

Comma delimited format used in spreadsheet applications
http://www.bom.gov.au/fwo/IDQ60801/IDQ60801.94276.axf

JavaScript Object Notation format (JSON) in row-major order
http://www.bom.gov.au/fwo/IDQ60801/IDQ60801.94276.json

Data quality

Most of these data are generated automatically and are frequently updated. Quality checks on data are not normally performed. It is possible for incorrect values to appear. Refer to information at About Latest Weather Observations and please check the disclaimer before using these data.